X  Tanca Dades meteorològiques de l'aviació METAR     KOMA Eppley Airfield
Temperatura
70°F Temperatura
66°F Rosada
88% Humitat



Vent
0 MPH
0 KM/H
0 M/S
0 NUS



Tranquil
Nord
Condicions actuals

Força ennuvolat Força ennuvolat
Pressió 1019.64 (hPa) - 30.11 (inHg)
Visibilitat 10 (milla) - 16.1 (km)
Aeroport
Codi aeroport KOMA

Ubicació: Eppley Airfield
Distància: 20 (mi)

Metar:
KOMA 220452Z 00000KT 10SM BKN080 21/19 A3011 RMK AO2 SLP188 T02110189

Temps: 07-22-2024 04:52 CDT